Lockhart, Louisiana
Current Conditions -  °F | °C
As of 12:53 PM on Friday 24 Oct 2014 (Local Time) from KELD Reporting Station
Clear Clear  
Wind Chill: 70°   Ceiling: Unl
Heat Index: 70°   Visibility: 10mi
Dew Point: 50°   Wind: 3mph
Humidity: 49%   Direction: NA
Pressure: 30.16"   Gusts: NA
Location:  32.9317°N, 92.5282°W
Report Text: KELD 241753Z AUTO VRB03KT 10SM CLR 21/10 A3016 RMK AO2 SLP212 T02110100 10217 20056 58012
Loading
Personal Weather Stations






























Interactive Weather Map
Tropical Storm Tracking
New forecast layout! Learn more

10-Day Weather Forecast

Advertisements
Track Severe Weather on mobile